createdAt,value
2023-04-10T00:01:06.127Z,2.17
2023-04-10T00:06:15.891Z,2.28
2023-04-10T00:11:25.636Z,2.45
2023-04-10T00:16:35.639Z,2.43
2023-04-10T00:21:43.901Z,3
2023-04-10T00:26:52.368Z,3.04
2023-04-10T00:32:03.783Z,3.03
2023-04-10T00:37:12.548Z,3.12
2023-04-10T00:42:22.276Z,3.2
2023-04-10T00:47:32.258Z,3.15
2023-04-10T00:52:41.185Z,3.28
2023-04-10T00:57:50.292Z,3.31
2023-04-10T01:03:00.312Z,3.55
2023-04-10T01:08:11.833Z,3.34
2023-04-10T01:13:21.508Z,3.66
2023-04-10T01:18:31.268Z,3.61
2023-04-10T01:23:41.683Z,3.63
2023-04-10T01:28:51.412Z,3.64
2023-04-10T01:34:00.086Z,3.63
2023-04-10T01:39:08.366Z,3.64
2023-04-10T01:44:17.495Z,3.59
2023-04-10T01:49:27.295Z,3.59
2023-04-10T01:54:37.036Z,3.49
2023-04-10T01:59:46.147Z,3.23
2023-04-10T02:04:54.869Z,2.82
2023-04-10T02:10:03.089Z,2.91
2023-04-10T02:15:14.149Z,2.89
2023-04-10T02:20:23.272Z,2.87
2023-04-10T02:25:31.745Z,2.77
2023-04-10T02:30:40.228Z,2.75
2023-04-10T02:35:49.446Z,2.58
2023-04-10T02:40:58.500Z,2.45
2023-04-10T02:46:07.561Z,2.61
2023-04-10T02:51:17.333Z,2.72
2023-04-10T02:56:27.087Z,2.71
2023-04-10T03:01:36.662Z,2.81
2023-04-10T03:06:45.974Z,2.9
2023-04-10T03:20:56.398Z,2.73
2023-04-10T03:37:25.569Z,2.79
2023-04-10T03:46:26.407Z,2.73
2023-04-10T04:01:37.076Z,3.01
2023-04-10T04:08:25.842Z,3.12
2023-04-10T04:14:25.498Z,3.12
2023-04-10T04:19:35.939Z,3.15
2023-04-10T04:24:45.679Z,3.13
2023-04-10T04:29:54.134Z,3.09
2023-04-10T04:35:04.537Z,2.94
2023-04-10T04:40:13.014Z,3.05
2023-04-10T04:45:22.263Z,2.85
2023-04-10T04:50:31.915Z,2.84
2023-04-10T04:55:41.642Z,2.74
2023-04-10T05:00:51.617Z,2.65
2023-04-10T05:06:01.201Z,2.66
2023-04-10T05:11:10.292Z,2.72
2023-04-10T05:16:20.605Z,2.37
2023-04-10T05:21:29.161Z,2.47
2023-04-10T05:26:38.912Z,2.04
2023-04-10T05:31:48.080Z,2.17
2023-04-10T05:36:59.564Z,1.91
2023-04-10T05:42:06.986Z,1.77
2023-04-10T05:47:16.757Z,1.74
2023-04-10T05:52:25.803Z,1.78
2023-04-10T05:57:35.597Z,1.9
2023-04-10T06:02:46.296Z,2.02
2023-04-10T06:07:58.748Z,1.96
2023-04-10T06:13:03.593Z,1.84
2023-04-10T06:18:12.687Z,1.66
2023-04-10T06:23:21.821Z,1.66
2023-04-10T06:28:32.208Z,1.66
2023-04-10T06:33:42.623Z,1.25
2023-04-10T06:38:51.742Z,1.16
2023-04-10T06:44:03.993Z,1.11
2023-04-10T06:49:10.624Z,1.18
2023-04-10T06:54:19.765Z,1.13
2023-04-10T06:59:29.505Z,0.96
2023-04-10T07:04:39.272Z,0.94
2023-04-10T07:09:49.029Z,0.9
2023-04-10T07:14:58.226Z,0.77
2023-04-10T07:20:07.303Z,0.88
2023-04-10T07:25:15.780Z,0.89
2023-04-10T07:30:24.854Z,0.87
2023-04-10T07:35:34.796Z,0.93
2023-04-10T07:40:43.774Z,0.9
2023-04-10T07:45:53.730Z,0.75
2023-04-10T07:51:03.264Z,0.83
2023-04-10T07:56:12.383Z,0.77
2023-04-10T08:01:22.802Z,0.86
2023-04-10T08:06:31.242Z,0.95
2023-04-10T08:11:40.376Z,0.83
2023-04-10T08:16:49.926Z,0.94
2023-04-10T08:21:59.269Z,0.72
2023-04-10T08:27:08.388Z,0.8
2023-04-10T08:32:17.503Z,0.83
2023-04-10T08:37:28.536Z,0.78
2023-04-10T08:42:38.301Z,0.75
2023-04-10T08:47:48.339Z,0.68
2023-04-10T08:52:57.829Z,0.78
2023-04-10T08:58:08.226Z,0.77
2023-04-10T09:03:18.867Z,0.72
2023-04-10T09:08:26.472Z,0.72
2023-04-10T09:13:35.570Z,0.72
2023-04-10T09:18:44.713Z,0.75
2023-04-10T09:23:55.618Z,0.69
2023-04-10T09:29:03.008Z,0.67
2023-04-10T09:34:13.390Z,0.71
2023-04-10T09:39:22.488Z,0.77
2023-04-10T09:44:31.066Z,0.75
2023-04-10T09:49:40.797Z,0.73
2023-04-10T09:54:49.186Z,0.74
2023-04-10T09:59:57.691Z,0.75
2023-04-10T10:05:07.976Z,0.72
2023-04-10T10:10:16.568Z,0.73
2023-04-10T10:15:25.712Z,0.71
2023-04-10T10:20:37.179Z,0.74
2023-04-10T10:25:45.172Z,0.72
2023-04-10T10:30:55.601Z,0.75
2023-04-10T10:36:07.301Z,0.66
2023-04-10T10:41:16.997Z,0.66
2023-04-10T10:46:25.477Z,0.69
2023-04-10T10:51:35.243Z,0.68
2023-04-10T10:56:45.039Z,0.69
2023-04-10T11:01:54.977Z,0.71
2023-04-10T11:07:03.895Z,0.76
2023-04-10T11:12:13.712Z,0.76
2023-04-10T11:17:26.131Z,0.71
2023-04-10T11:22:35.738Z,0.68
2023-04-10T11:27:45.255Z,0.73
2023-04-10T11:32:55.547Z,0.73
2023-04-10T11:38:06.287Z,0.76
2023-04-10T11:43:16.072Z,0.71
2023-04-10T11:48:26.441Z,0.78
2023-04-10T11:53:34.932Z,0.75
2023-04-10T11:58:44.691Z,0.8
2023-04-10T12:03:55.489Z,0.73
2023-04-10T12:09:03.050Z,0.76
2023-04-10T12:14:13.338Z,0.78
2023-04-10T12:19:23.808Z,0.75
2023-04-10T12:24:34.145Z,0.74
2023-04-10T12:29:44.537Z,0.73
2023-04-10T12:34:54.960Z,0.77
2023-04-10T12:40:03.416Z,0.78
2023-04-10T12:45:13.184Z,0.75
2023-04-10T12:50:21.772Z,0.72
2023-04-10T12:55:30.165Z,0.78
2023-04-10T13:00:40.549Z,0.78
2023-04-10T13:05:49.665Z,0.74
2023-04-10T13:10:59.377Z,0.75
2023-04-10T13:16:08.895Z,0.75
2023-04-10T13:21:18.288Z,0.74
2023-04-10T13:26:28.047Z,0.72
2023-04-10T13:31:38.246Z,0.7
2023-04-10T13:36:47.791Z,0.75
2023-04-10T13:41:57.331Z,0.72
2023-04-10T13:47:08.174Z,0.74
2023-04-10T13:52:16.251Z,0.75
2023-04-10T13:57:25.998Z,0.74
2023-04-10T14:02:36.520Z,0.77
2023-04-10T14:07:44.871Z,0.72
2023-04-10T14:12:55.264Z,0.69
2023-04-10T14:18:05.206Z,0.78
2023-04-10T14:23:14.768Z,0.71
2023-04-10T14:28:23.924Z,0.76
2023-04-10T14:33:35.973Z,0.75
2023-04-10T14:38:44.759Z,0.79
2023-04-10T14:43:55.103Z,0.73
2023-04-10T14:49:04.954Z,0.7
2023-04-10T14:54:13.326Z,0.73
2023-04-10T14:59:23.417Z,0.74
2023-04-10T15:04:33.485Z,0.72
2023-04-10T15:09:42.644Z,0.71
2023-04-10T15:14:52.378Z,0.74
2023-04-10T15:20:02.804Z,0.69
2023-04-10T15:25:11.912Z,0.68
2023-04-10T15:30:21.670Z,0.72
2023-04-10T15:35:31.593Z,0.76
2023-04-10T15:40:41.834Z,0.75
2023-04-10T15:45:51.120Z,0.75
2023-04-10T15:51:00.694Z,0.76
2023-04-10T15:56:09.191Z,0.81
2023-04-10T16:01:17.847Z,0.74
2023-04-10T16:06:28.063Z,0.73
2023-04-10T16:11:37.815Z,0.76
2023-04-10T16:16:47.722Z,0.75
2023-04-10T16:21:56.689Z,0.76
2023-04-10T16:27:05.823Z,0.75
2023-04-10T16:32:14.932Z,0.74
2023-04-10T16:37:23.984Z,0.74
2023-04-10T16:42:33.177Z,0.75
2023-04-10T16:47:43.061Z,0.75
2023-04-10T16:52:52.961Z,0.69
2023-04-10T16:58:02.448Z,0.67
2023-04-10T17:03:11.987Z,0.69
2023-04-10T17:08:20.065Z,0.7
2023-04-10T17:13:29.819Z,0.66
2023-04-10T17:18:39.587Z,0.68
2023-04-10T17:23:48.719Z,0.69
2023-04-10T17:28:57.815Z,0.65
2023-04-10T17:34:08.224Z,0.73
2023-04-10T17:39:17.345Z,0.75
2023-04-10T17:44:25.796Z,0.7
2023-04-10T17:49:34.328Z,0.71
2023-04-10T17:54:44.062Z,0.7
2023-04-10T17:59:53.815Z,0.67
2023-04-10T18:05:04.214Z,0.68
2023-04-10T18:10:12.731Z,0.7
2023-04-10T18:15:21.829Z,0.71
2023-04-10T18:20:31.599Z,0.67
2023-04-10T18:25:41.319Z,0.65
2023-04-10T18:30:51.325Z,0.69
2023-04-10T18:36:01.054Z,0.71
2023-04-10T18:41:09.994Z,0.72
2023-04-10T18:46:20.016Z,0.71
2023-04-10T18:51:28.862Z,0.71
2023-04-10T18:56:38.771Z,0.72
2023-04-10T19:01:48.846Z,0.69
2023-04-10T19:06:56.857Z,0.63
2023-04-10T19:12:05.358Z,0.69
2023-04-10T19:17:14.450Z,0.7
2023-04-10T19:22:24.227Z,0.7
2023-04-10T19:27:35.888Z,0.71
2023-04-10T19:32:43.965Z,0.69
2023-04-10T19:37:52.833Z,0.65
2023-04-10T19:43:02.686Z,0.6
2023-04-10T19:48:12.385Z,0.68
2023-04-10T19:53:21.065Z,0.69
2023-04-10T19:58:56.957Z,0.7
2023-04-10T20:03:42.638Z,0.65
2023-04-10T20:08:53.496Z,0.64
2023-04-10T20:14:01.170Z,0.58
2023-04-10T20:19:10.300Z,0.69
2023-04-10T20:24:20.842Z,0.6
2023-04-10T20:29:29.810Z,0.55
2023-04-10T20:34:38.294Z,0.57
2023-04-10T20:39:47.438Z,0.59
2023-04-10T20:44:55.880Z,0.61
2023-04-10T20:50:05.667Z,0.58
2023-04-10T20:55:15.396Z,0.54
2023-04-10T21:00:24.523Z,0.56
2023-04-10T21:05:34.308Z,0.53
2023-04-10T21:10:44.448Z,0.5
2023-04-10T21:15:53.798Z,0.48
2023-04-10T21:21:02.285Z,0.47
2023-04-10T21:26:11.447Z,0.51
2023-04-10T21:31:20.823Z,0.41
2023-04-10T21:36:29.642Z,0.48
2023-04-10T21:41:38.794Z,0.46
2023-04-10T21:46:47.276Z,0.45
2023-04-10T21:51:55.733Z,0.49
2023-04-10T21:57:06.230Z,0.49
2023-04-10T22:02:15.575Z,0.43
2023-04-10T22:07:25.651Z,0.42
2023-04-10T22:12:35.404Z,0.45
2023-04-10T22:17:44.381Z,0.44
2023-04-10T22:22:52.405Z,0.44
2023-04-10T22:28:02.151Z,0.47
2023-04-10T22:33:10.935Z,0.45
2023-04-10T22:38:19.089Z,0.46
2023-04-10T22:43:28.202Z,0.43
2023-04-10T22:48:38.969Z,0.49
2023-04-10T22:53:48.349Z,0.45
2023-04-10T22:58:57.650Z,0.44
2023-04-10T23:04:06.739Z,0.45
2023-04-10T23:09:15.749Z,0.44
2023-04-10T23:14:24.872Z,0.46
2023-04-10T23:19:33.973Z,0.44
2023-04-10T23:24:42.478Z,0.43
2023-04-10T23:29:52.299Z,0.46
2023-04-10T23:35:02.649Z,0.47
2023-04-10T23:40:11.121Z,0.48
2023-04-10T23:45:20.869Z,0.47
2023-04-10T23:50:29.356Z,0.48
2023-04-10T23:55:39.760Z,0.43
